Latest Weather Observations for Coonawarra

IDS60801

Issued at 6:51 am CDT Friday 21 January 2022 (issued every 10 minutes, with the page automatically refreshed every 10 minutes)

About weather observations | Map of weather stations | Latest weather observations for SA | Other Formats
Station Details ID: 026091 Name: COONAWARRA Lat: -37.29 Lon: 140.83 Height: 57.0 m
Data from the previous 72 hours. | See also: Recent months at Coonawarra
Date/Time
CDT
Temp
°C
App
Temp
°C
Dew
Point
°C
Rel
Hum
%
Delta-T
°C
Wind Press
QNH
hPa
Press
MSL
hPa
Rain since
9am
mm
Dir  Spd
km/h
Gust
km/h
Spd
kts
Gust
kts
21/06:30am 19.4 16.3 9.0 51 5.4 NE 15 22 8 12 1022.9 1022.8 0.0
21/06:00am 16.4 14.6 7.9 57 4.3 ENE 7 11 4 6 1022.8 1022.7 0.0
21/05:30am 16.6 14.3 7.5 55 4.5 ENE 9 11 5 6 1022.7 1022.6 0.0
21/05:00am 17.3 14.6 7.4 52 5.0 E 11 13 6 7 1022.5 1022.4 0.0
21/04:30am 17.9 15.2 7.3 50 5.3 E 11 15 6 8 1022.3 1022.2 0.0
21/04:00am 17.7 14.6 7.4 51 5.2 E 13 15 7 8 1022.5 1022.4 0.0
21/03:30am 17.3 14.3 7.6 53 4.9 ESE 13 15 7 8 1022.4 1022.3 0.0
21/03:00am 17.8 15.3 8.1 53 4.9 E 11 13 6 7 1022.7 1022.6 0.0
21/02:30am 18.3 15.8 8.3 52 5.1 E 11 13 6 7 1022.5 1022.4 0.0
21/02:00am 19.6 17.2 8.6 49 5.7 ESE 11 15 6 8 1022.6 1022.5 0.0
21/01:30am 20.1 17.4 8.8 48 5.9 ESE 13 17 7 9 1022.7 1022.6 0.0
21/01:00am 19.5 17.2 9.1 51 5.5 ESE 11 15 6 8 1022.7 1022.6 0.0
21/12:30am 20.2 18.0 9.5 50 5.7 ESE 11 13 6 7 1022.5 1022.4 0.0
21/12:00am 21.8 19.4 10.0 47 6.4 SE 13 17 7 9 1022.4 1022.3 0.0
 
Date/Time
CDT
Temp
°C
App
Temp
°C
Dew
Point
°C
Rel
Hum
%
Delta-T
°C
Wind Press
QNH
hPa
Press
MSL
hPa
Rain since
9am
mm
Dir  Spd
km/h
Gust
km/h
Spd
kts
Gust
kts
20/11:30pm 22.2 19.9 10.4 47 6.4 ESE 13 15 7 8 1022.3 1022.2 0.0
20/11:00pm 23.0 20.9 11.1 47 6.6 SE 13 17 7 9 1022.2 1022.1 0.0
20/10:30pm 23.6 21.6 11.6 47 6.7 SE 13 19 7 10 1021.9 1021.8 0.0
20/10:00pm 24.6 22.3 11.9 45 7.2 SE 15 20 8 11 1021.7 1021.6 0.0
20/09:30pm 25.7 25.0 11.5 41 8.1 SSE 6 15 3 8 1021.3 1021.2 0.0
20/09:00pm 27.4 24.7 7.3 28 10.7 ESE 11 17 6 9 1020.8 1020.7 0.0
20/08:30pm 28.5 25.4 5.4 23 12.0 ENE 11 13 6 7 1020.2 1020.1 0.0
20/08:00pm 30.9 27.2 4.6 19 13.7 ENE 13 20 7 11 1020.0 1019.9 0.0
20/07:30pm 32.3 27.9 5.0 18 14.4 NE 17 26 9 14 1019.8 1019.7 0.0
20/07:00pm 32.9 28.8 6.2 19 14.4 NE 17 22 9 12 1019.7 1019.6 0.0
20/06:30pm 33.3 28.9 6.6 19 14.5 ENE 19 28 10 15 1019.6 1019.5 0.0
20/06:00pm 33.5 29.0 5.9 18 14.9 ENE 19 26 10 14 1019.7 1019.6 0.0
20/05:30pm 33.6 29.1 6.0 18 14.9 NE 19 28 10 15 1019.9 1019.8 0.0
20/05:00pm 33.6 28.7 5.2 17 15.2 ENE 20 32 11 17 1020.1 1020.0 0.0
20/04:30pm 33.8 29.0 5.4 17 15.2 ENE 20 30 11 16 1020.5 1020.4 0.0
20/04:00pm 33.6 29.1 6.0 18 14.9 E 19 33 10 18 1020.9 1020.8 0.0
20/03:30pm 33.2 28.6 6.5 19 14.5 ENE 20 30 11 16 1021.3 1021.2 0.0
20/03:00pm 33.5 29.7 8.9 22 13.9 E 19 33 10 18 1021.9 1021.8 0.0
20/02:30pm 33.4 29.5 8.8 22 13.8 E 19 33 10 18 1022.3 1022.2 0.0
20/02:00pm 32.5 28.9 9.9 25 12.9 E 19 32 10 17 1022.5 1022.4 0.0
20/01:30pm 31.0 27.6 9.3 26 12.2 ESE 17 26 9 14 1022.9 1022.8 0.0
20/01:00pm 31.0 28.3 10.4 28 11.8 E 15 26 8 14 1023.6 1023.4 0.0
20/12:30pm 29.9 27.4 10.9 31 10.9 NE 15 22 8 12 1023.8 1023.6 0.0
20/12:00pm 28.9 26.0 11.0 33 10.2 NNE 17 26 9 14 1024.2 1024.0 0.0
20/11:30am 28.6 25.9 11.6 34 9.8 NE 17 28 9 15 1024.4 1024.2 0.0
20/11:00am 27.9 24.4 11.0 35 9.6 NNE 20 32 11 17 1024.7 1024.5 0.0
20/10:30am 26.4 21.4 9.7 35 9.2 NNE 26 41 14 22 1024.8 1024.6 0.0
20/10:00am 26.2 21.8 10.4 37 8.8 NNE 24 39 13 21 1024.8 1024.6 0.0
20/09:30am 25.4 20.5 10.1 38 8.4 NNE 26 39 14 21 1024.8 1024.6 0.0
20/09:00am 24.4 20.2 11.0 43 7.5 NE 24 33 13 18 1025.0 1024.8 0.0
20/08:30am 22.8 19.7 11.5 49 6.3 NE 19 28 10 15 1024.9 1024.7 0.0
20/08:00am 20.0 18.1 11.8 59 4.6 E 13 17 7 9 1024.8 1024.6 0.0
20/07:30am 18.1 16.1 11.4 65 3.6 E 13 17 7 9 1024.6 1024.4 0.0
20/07:00am 16.4 14.3 11.3 72 2.8 ESE 13 17 7 9 1024.7 1024.5 0.0
20/06:30am 15.3 13.1 10.9 75 2.3 SE 13 17 7 9 1024.2 1024.0 0.0
20/06:00am 14.6 13.1 10.6 77 2.1 ESE 9 13 5 7 1023.7 1023.5 0.0
20/05:30am 15.2 13.7 10.6 74 2.4 ESE 9 13 5 7 1023.1 1023.0 0.0
20/05:00am 15.7 13.9 10.7 72 2.7 ESE 11 15 6 8 1022.8 1022.7 0.0
20/04:30am 16.4 13.4 10.7 69 3.0 ESE 17 22 9 12 1022.5 1022.4 0.0
20/04:00am 16.6 14.1 10.9 69 3.1 ESE 15 20 8 11 1022.3 1022.2 0.0
20/03:30am 16.9 14.4 11.0 68 3.2 ESE 15 20 8 11 1022.0 1021.9 0.0
20/03:00am 17.3 14.8 11.1 67 3.3 ESE 15 20 8 11 1022.1 1022.0 0.0
20/02:30am 17.8 14.9 11.1 65 3.6 SE 17 20 9 11 1022.0 1021.9 0.0
20/02:00am 18.2 15.3 11.0 63 3.9 SE 17 24 9 13 1022.2 1022.1 0.0
20/01:30am 18.5 15.3 11.1 62 4.0 ESE 19 26 10 14 1022.4 1022.3 0.0
20/01:00am 19.1 15.7 11.2 60 4.3 ESE 20 30 11 16 1022.2 1022.1 0.0
20/12:30am 19.6 16.2 11.1 58 4.6 ESE 20 30 11 16 1021.9 1021.8 0.0
20/12:00am 20.0 16.2 11.0 56 4.9 ESE 22 33 12 18 1021.8 1021.7 0.0
 
Date/Time
CDT
Temp
°C
App
Temp
°C
Dew
Point
°C
Rel
Hum
%
Delta-T
°C
Wind Press
QNH
hPa
Press
MSL
hPa
Rain since
9am
mm
Dir  Spd
km/h
Gust
km/h
Spd
kts
Gust
kts
19/11:30pm 20.6 16.3 10.7 53 5.4 ESE 24 43 13 23 1021.7 1021.6 0.0
19/11:00pm 21.0 16.7 10.8 52 5.6 ESE 24 35 13 19 1021.6 1021.5 0.0
19/10:30pm 21.4 16.8 10.9 51 5.8 ESE 26 39 14 21 1021.4 1021.3 0.0
19/10:00pm 22.1 17.0 10.6 48 6.3 ESE 28 48 15 26 1021.1 1021.0 0.0
19/09:56pm 22.4 17.4 10.9 48 6.4 ESE 28 48 15 26 1021.0 1020.9 0.0
19/09:30pm 23.1 18.0 10.5 45 6.9 ESE 28 39 15 21 1020.5 1020.4 0.0
19/09:00pm 24.2 18.3 10.5 42 7.6 ESE 32 44 17 24 1020.1 1020.0 0.0
19/08:32pm 24.9 19.9 10.8 41 7.9 ESE 28 46 15 25 1019.7 1019.6 0.0
19/08:30pm 25.1 19.7 10.9 41 8.0 ESE 30 46 16 25 1019.6 1019.5 0.0
19/08:08pm 25.9 20.0 11.3 40 8.3 ESE 33 52 18 28 1019.4 1019.3 0.0
19/08:00pm 26.3 20.0 11.2 38 8.6 ESE 35 50 19 27 1019.2 1019.1 0.0
19/07:30pm 27.7 22.0 11.3 36 9.4 ESE 32 57 17 31 1018.8 1018.7 0.0
19/07:00pm 28.7 23.0 11.3 34 10.0 ESE 32 50 17 27 1018.3 1018.2 0.0
19/06:30pm 29.8 24.3 11.8 33 10.5 ESE 32 52 17 28 1017.9 1017.8 0.0
19/06:21pm 30.0 24.5 12.0 33 10.5 SE 32 52 17 28 1017.8 1017.7 0.0
19/06:00pm 30.5 25.4 11.9 31 10.9 SE 30 44 16 24 1017.7 1017.6 0.0
19/05:30pm 31.9 27.3 11.1 28 12.1 ESE 26 39 14 21 1017.7 1017.6 0.0
19/05:00pm 31.8 27.7 11.6 29 11.8 E 24 35 13 19 1017.7 1017.6 0.0
19/04:30pm 31.5 27.2 10.8 28 11.9 ESE 24 35 13 19 1017.7 1017.6 0.0
19/04:00pm 31.5 26.7 10.2 27 12.2 ESE 26 41 14 22 1017.9 1017.8 0.0
19/03:30pm 31.2 26.6 11.1 29 11.6 E 26 37 14 20 1018.0 1017.9 0.0
19/03:00pm 30.6 26.0 11.1 30 11.3 ESE 26 39 14 21 1018.4 1018.3 0.0
19/02:30pm 30.6 26.4 11.1 30 11.3 ESE 24 41 13 22 1018.7 1018.6 0.0
19/02:00pm 29.6 24.5 10.7 31 10.8 ESE 28 46 15 25 1018.7 1018.6 0.0
19/01:48pm 29.3 24.1 10.4 31 10.7 ESE 28 46 15 25 1018.9 1018.8 0.0
19/01:30pm 29.2 24.3 11.3 33 10.3 SE 28 41 15 22 1019.0 1018.9 0.0
19/01:22pm 28.3 23.4 11.4 35 9.7 ESE 28 46 15 25 1019.1 1019.0 0.0
19/01:00pm 28.3 23.7 12.2 37 9.4 ESE 28 41 15 22 1019.4 1019.3 0.0
19/12:39pm 27.1 22.1 12.3 39 8.6 ESE 30 48 16 26 1019.5 1019.4 0.0
19/12:30pm 27.0 22.1 12.6 41 8.4 E 30 44 16 24 1019.7 1019.6 0.0
19/12:00pm 25.6 20.3 12.4 43 7.6 ESE 32 48 17 26 1019.9 1019.8 0.0
19/11:30am 24.2 18.7 12.5 48 6.7 SE 33 48 18 26 1020.2 1020.1 0.0
19/11:02am 23.6 18.2 12.3 49 6.5 ESE 32 61 17 33 1020.5 1020.4 0.0
19/11:00am 24.0 18.7 12.6 49 6.6 ESE 32 46 17 25 1020.5 1020.4 0.0
19/10:34am 22.6 17.3 12.5 53 5.8 ESE 32 50 17 27 1020.7 1020.6 0.0
19/10:30am 22.4 16.5 12.4 53 5.7 ESE 35 50 19 27 1020.7 1020.6 0.0
19/10:06am 21.3 17.0 13.2 60 4.6 ESE 28 46 15 25 1021.0 1020.9 0.0
19/10:00am 20.7 15.9 12.9 61 4.4 ESE 30 41 16 22 1021.0 1020.9 0.0
19/09:45am 20.6 16.2 12.8 61 4.4 ESE 28 46 15 25 1021.0 1020.9 0.0
19/09:30am 19.9 15.9 12.9 64 4.0 ESE 26 39 14 21 1021.0 1020.9 0.0
19/09:00am 18.8 14.6 12.5 67 3.5 ESE 26 35 14 19 1021.0 1020.9 0.0
19/08:31am 18.0 13.4 12.2 69 3.2 SE 28 46 15 25 1020.6 1020.5 0.0
19/08:30am 18.0 13.4 12.2 69 3.2 SE 28 39 15 21 1020.6 1020.5 0.0
19/08:00am 16.5 12.2 11.9 74 2.5 SE 26 39 14 21 1020.5 1020.4 0.0
19/07:30am 16.1 13.0 11.5 74 2.5 SSE 19 28 10 15 1020.2 1020.1 0.0
19/07:00am 15.1 12.2 10.9 76 2.2 SSE 17 24 9 13 1019.8 1019.7 0.0
19/06:30am 14.4 11.3 10.4 77 2.1 SSE 17 20 9 11 1019.7 1019.6 0.0
19/06:00am 14.0 11.5 9.8 76 2.2 SSE 13 19 7 10 1019.6 1019.5 0.0
19/05:30am 13.9 11.7 9.3 74 2.3 SE 11 19 6 10 1019.7 1019.6 0.0
19/05:00am 14.5 11.9 9.3 71 2.7 SSE 13 22 7 12 1019.7 1019.6 0.0
19/04:30am 14.6 11.2 9.0 69 2.8 SE 17 26 9 14 1019.5 1019.4 0.0
19/04:00am 15.5 11.4 8.7 64 3.5 SE 20 32 11 17 1019.4 1019.3 0.0
19/03:30am 15.4 11.4 8.4 63 3.5 SE 19 28 10 15 1019.2 1019.1 0.0
19/03:00am 15.4 11.3 7.9 61 3.8 SE 19 32 10 17 1019.3 1019.2 0.0
19/02:30am 15.2 11.0 7.5 60 3.8 SE 19 28 10 15 1019.3 1019.2 0.0
19/02:00am 15.3 10.6 7.6 60 3.8 SE 22 37 12 20 1019.6 1019.5 0.0
19/01:30am 15.2 10.9 8.0 62 3.6 SE 20 35 11 19 1019.7 1019.6 0.0
19/01:00am 14.1 11.0 8.9 71 2.6 SE 15 26 8 14 1020.0 1019.9 0.0
19/12:30am 14.6 10.8 9.2 70 2.8 SE 19 35 10 19 1019.9 1019.8 0.0
19/12:00am 15.0 11.1 9.4 69 2.9 SE 20 32 11 17 1019.9 1019.8 0.0
 
Date/Time
CDT
Temp
°C
App
Temp
°C
Dew
Point
°C
Rel
Hum
%
Delta-T
°C
Wind Press
QNH
hPa
Press
MSL
hPa
Rain since
9am
mm
Dir  Spd
km/h
Gust
km/h
Spd
kts
Gust
kts
18/11:30pm 15.4 11.5 9.3 67 3.1 SE 20 30 11 16 1020.0 1019.9 0.0
18/11:00pm 15.2 11.7 8.9 66 3.2 SE 17 28 9 15 1020.0 1019.9 0.0
18/10:30pm 15.4 11.5 8.6 64 3.5 SE 19 28 10 15 1019.9 1019.8 0.0
18/10:00pm 16.1 12.0 8.6 61 3.8 SE 20 33 11 18 1019.7 1019.6 0.0
18/09:30pm 16.3 12.2 8.8 61 3.8 SE 20 32 11 17 1019.7 1019.6 0.0
18/09:00pm 16.6 11.5 9.1 61 3.9 SE 26 35 14 19 1019.4 1019.3 0.0
18/08:30pm 17.0 13.0 9.2 60 4.0 SSE 20 33 11 18 1019.4 1019.3 0.0
18/08:00pm 17.2 12.4 8.9 58 4.3 SE 24 37 13 20 1018.8 1018.7 0.0
18/07:30pm 17.5 12.7 8.9 57 4.5 SE 24 33 13 18 1018.2 1018.1 0.0
18/07:00pm 18.1 13.4 9.2 56 4.7 SSE 24 39 13 21 1017.5 1017.4 0.0
18/06:30pm 18.9 13.2 8.3 50 5.5 SSE 28 41 15 22 1017.3 1017.2 0.0
18/06:00pm 19.3 14.7 9.8 54 5.1 SSE 24 37 13 20 1017.0 1016.9 0.0
18/05:30pm 19.2 13.0 9.4 53 5.2 SSE 32 46 17 25 1016.8 1016.7 0.0
18/05:00pm 21.1 16.3 9.0 46 6.4 SSE 24 35 13 19 1016.6 1016.5 0.0
18/04:30pm 21.1 16.5 9.7 48 6.1 SSE 24 37 13 20 1016.7 1016.6 0.0
18/04:00pm 20.2 15.6 9.5 50 5.7 SSE 24 35 13 19 1017.2 1017.1 0.0
18/03:30pm 20.1 15.4 9.1 49 5.8 SE 24 39 13 21 1017.3 1017.2 0.0
18/03:00pm 20.2 15.6 9.7 51 5.6 SSE 24 33 13 18 1017.4 1017.3 0.0
18/02:30pm 19.5 15.3 9.7 53 5.2 SSE 22 33 12 18 1017.6 1017.5 0.0
18/02:00pm 19.9 15.0 10.0 53 5.3 SSE 26 39 14 21 1017.9 1017.8 0.0
18/01:30pm 18.9 14.2 9.4 54 5.0 SSE 24 39 13 21 1018.0 1017.9 0.0
18/01:00pm 19.5 15.1 9.1 51 5.5 SSE 22 33 12 18 1018.1 1018.0 0.0
18/12:30pm 18.8 14.3 8.7 52 5.3 SE 22 32 12 17 1018.3 1018.2 0.0
18/12:00pm 18.6 14.7 9.4 55 4.8 SSE 20 30 11 16 1018.4 1018.3 0.0
18/11:30am 19.4 15.4 9.0 51 5.5 SSE 20 37 11 20 1018.1 1018.0 0.0
18/11:00am 19.7 15.8 9.3 51 5.5 SSE 20 32 11 17 1018.4 1018.3 0.0
18/10:30am 18.4 14.1 7.8 50 5.4 SSE 20 33 11 18 1018.5 1018.4 0.0
18/10:00am 17.8 12.8 8.1 53 5.0 SSE 24 35 13 19 1018.5 1018.4 0.0
18/09:30am 17.4 13.0 9.1 58 4.3 SSE 22 33 12 18 1018.4 1018.3 0.0
18/09:00am 17.3 13.5 9.7 61 4.0 SSE 20 30 11 16 1018.1 1018.0 0.0
18/08:30am 15.7 12.4 9.6 67 3.2 SSE 17 24 9 13 1017.8 1017.7 0.0
18/08:00am 14.2 11.7 9.6 74 2.4 S 13 19 7 10 1017.6 1017.5 0.0
18/07:30am 12.2 10.4 9.6 84 1.3 SSE 9 13 5 7 1017.5 1017.4 0.0
18/07:00am 10.0 8.4 8.6 91 0.7 S 7 11 4 6 1017.2 1017.1 0.0

Other formats

Comma delimited format used in spreadsheet applications
http://www.bom.gov.au/fwo/IDS60801/IDS60801.94817.axf

JavaScript Object Notation format (JSON) in row-major order
http://www.bom.gov.au/fwo/IDS60801/IDS60801.94817.json

Data quality

Most of these data are generated automatically and are frequently updated. Quality checks on data are not normally performed. It is possible for incorrect values to appear. Refer to information at About Latest Weather Observations and please check the disclaimer before using these data.